Time;durP1;ratioP1;P1;durP2;ratioP2;P2;SDS_P1;SDS_P2;PMS_P1;PMS_P2;Temp;Humidity;BMP_temperature;BMP_pressure;BME280_temperature;BME280_humidity;BME280_pressure;Samples;Min_cycle;Max_cycle;Signal;HPM_P1;HPM_P2
2023/03/02 06:22:23;;;;;;;;;8.75;8.00;;;;;17.28;37.90;101673.22;5118925;27;45507;-81
2023/03/02 06:24:48;;;;;;;;;8.75;8.75;;;;;17.85;38.54;101667.56;5111378;27;45410;-81
2023/03/02 06:27:14;;;;;;;;;11.25;8.75;;;;;18.68;38.79;101670.69;5102209;27;46454;-81
2023/03/02 06:29:39;;;;;;;;;8.75;7.25;;;;;19.58;39.11;101668.47;5112063;27;45836;-79
2023/03/02 06:32:04;;;;;;;;;10.75;9.00;;;;;20.41;38.60;101665.56;5115412;27;45908;-79
2023/03/02 06:34:30;;;;;;;;;9.25;9.25;;;;;21.16;38.32;101678.34;5094750;27;45517;-80
2023/03/02 06:36:55;;;;;;;;;6.75;6.75;;;;;21.77;37.66;101673.22;5107807;27;45483;-80
2023/03/02 06:39:21;;;;;;;;;9.50;8.25;;;;;22.29;36.99;101667.78;5107577;27;46297;-79
2023/03/02 06:41:47;;;;;;;;;8.25;7.75;;;;;22.76;36.45;101669.00;5113031;27;45597;-79
2023/03/02 06:44:14;;;;;;;;;7.00;7.00;;;;;23.18;36.77;101673.31;5120025;27;45590;-79
2023/03/02 06:46:41;;;;;;;;;9.00;6.50;;;;;23.54;36.47;101678.16;5110668;27;45391;-78
2023/03/02 06:49:07;;;;;;;;;14.25;9.50;;;;;23.87;35.79;101673.16;5110876;27;45653;-81
2023/03/02 06:51:32;;;;;;;;;9.00;9.00;;;;;24.12;35.80;101684.41;5110274;27;46143;-78
2023/03/02 06:53:58;;;;;;;;;7.75;7.75;;;;;24.30;35.37;101678.16;5101032;27;45459;-78
2023/03/02 06:56:23;;;;;;;;;10.50;10.50;;;;;24.51;35.23;101685.16;5110405;27;45869;-78
2023/03/02 06:58:49;;;;;;;;;12.75;9.75;;;;;24.65;34.85;101686.53;5104641;27;45643;-78
2023/03/02 07:01:15;;;;;;;;;10.00;8.75;;;;;24.78;34.68;101695.16;5108715;27;45711;-78
2023/03/02 07:03:40;;;;;;;;;12.50;9.00;;;;;24.83;34.52;101690.13;5111166;27;45754;-78
2023/03/02 07:06:06;;;;;;;;;11.75;10.75;;;;;24.90;34.27;101695.81;5096944;27;45529;-78
2023/03/02 07:08:31;;;;;;;;;14.33;10.67;;;;;24.96;34.13;101697.91;5097123;27;45449;-77
2023/03/02 07:10:57;;;;;;;;;9.25;9.25;;;;;25.05;33.98;101697.97;5102358;27;46166;-81
2023/03/02 07:13:22;;;;;;;;;10.00;9.00;;;;;25.17;34.04;101695.88;5103986;27;45435;-80
2023/03/02 07:15:47;;;;;;;;;9.00;8.67;;;;;25.28;34.04;101690.19;5108730;27;45396;-80
2023/03/02 07:18:13;;;;;;;;;9.67;9.67;;;;;25.42;33.88;101687.91;5108806;27;45576;-77
2023/03/02 07:20:38;;;;;;;;;10.00;7.33;;;;;25.54;33.94;101686.63;5107765;27;47475;-77
2023/03/02 07:23:05;;;;;;;;;10.00;10.00;;;;;25.69;33.57;101686.94;5104713;27;45414;-76
2023/03/02 07:25:30;;;;;;;;;10.67;9.33;;;;;25.80;33.61;101688.53;5117049;27;45507;-77
2023/03/02 07:27:56;;;;;;;;;11.33;9.33;;;;;25.90;33.60;101685.69;5107607;27;45442;-77
2023/03/02 07:30:21;;;;;;;;;8.00;8.00;;;;;26.01;33.33;101692.72;5103344;27;46075;-80
2023/03/02 07:32:47;;;;;;;;;7.67;7.67;;;;;26.12;32.99;101688.88;5096417;27;45361;-79
2023/03/02 07:35:13;;;;;;;;;8.33;8.33;;;;;26.17;33.10;101689.22;5095115;27;45520;-87
2023/03/02 07:37:39;;;;;;;;;12.00;8.33;;;;;26.29;32.82;101692.53;5094803;27;45524;-85
2023/03/02 07:40:05;;;;;;;;;10.00;7.33;;;;;26.39;32.84;101687.81;5094109;27;46623;-84
2023/03/02 07:42:31;;;;;;;;;9.67;9.33;;;;;26.48;32.99;101683.22;5093658;27;45873;-83
2023/03/02 07:44:56;;;;;;;;;13.00;10.67;;;;;26.54;32.86;101681.72;5093504;27;45540;-96
2023/03/02 07:47:22;;;;;;;;;7.67;7.33;;;;;26.60;32.51;101685.66;5096075;27;45826;-86
2023/03/02 07:49:47;;;;;;;;;9.00;8.67;;;;;26.65;32.73;101677.84;5083372;27;45585;-83
2023/03/02 07:52:12;;;;;;;;;9.33;9.00;;;;;26.70;32.24;101684.47;5095056;27;45427;-82
2023/03/02 07:54:38;;;;;;;;;28.00;23.00;;;;;26.72;32.18;101692.47;5095714;27;45426;-79
2023/03/02 07:57:03;;;;;;;;;19.00;18.50;;;;;26.62;31.70;101681.75;5094707;27;45503;-80
2023/03/02 07:59:28;;;;;;;;;14.67;14.67;;;;;26.56;31.45;101690.56;5092961;27;45385;-81
2023/03/02 08:01:55;;;;;;;;;17.67;14.67;;;;;26.51;31.21;101691.06;5094491;27;45428;-87
2023/03/02 08:04:20;;;;;;;;;15.00;14.67;;;;;26.48;31.98;101693.28;5090444;27;45690;-84
2023/03/02 08:06:45;;;;;;;;;13.33;12.00;;;;;26.50;31.35;101702.13;5094548;27;45522;-81
2023/03/02 08:09:12;;;;;;;;;13.67;12.67;;;;;26.54;31.35;101700.78;5092263;27;46364;-81
2023/03/02 08:11:37;;;;;;;;;17.67;16.33;;;;;26.60;31.44;101702.81;5088525;27;47306;-86
2023/03/02 08:14:02;;;;;;;;;14.33;11.33;;;;;26.65;31.16;101707.78;5082176;27;45761;-83
2023/03/02 08:16:28;;;;;;;;;15.33;14.00;;;;;26.71;31.70;101709.84;5089150;27;47754;-83
2023/03/02 08:18:54;;;;;;;;;15.00;11.00;;;;;26.78;31.44;101700.00;5082435;27;45993;-83
2023/03/02 08:21:22;;;;;;;;;14.33;11.33;;;;;26.89;31.11;101706.97;5093231;27;45415;-84
2023/03/02 08:23:53;;;;;;;;;14.00;11.00;;;;;27.01;30.90;101706.69;5091800;27;45641;-84
2023/03/02 08:26:20;;;;;;;;;10.00;10.00;;;;;27.10;31.55;101697.50;5096257;27;45549;-82
2023/03/02 08:28:46;;;;;;;;;11.00;11.00;;;;;27.21;31.18;101691.69;5076536;27;45628;-85
2023/03/02 08:31:12;;;;;;;;;12.33;11.33;;;;;27.33;31.34;101685.88;5095022;27;45382;-79
2023/03/02 08:33:38;;;;;;;;;9.33;8.67;;;;;27.46;31.25;101690.84;5092606;27;45490;-79
2023/03/02 08:36:07;;;;;;;;;11.00;10.33;;;;;27.57;30.74;101684.16;5094761;27;45512;-84
2023/03/02 08:38:33;;;;;;;;;12.00;10.00;;;;;27.67;31.13;101690.28;5085934;27;45555;-78
2023/03/02 08:41:08;;;;;;;;;10.00;7.00;;;;;27.72;30.47;101679.72;5080178;27;45497;-79
2023/03/02 08:43:33;;;;;;;;;8.67;8.33;;;;;27.78;30.15;101677.34;5086365;27;45586;-87
2023/03/02 08:45:59;;;;;;;;;10.00;9.00;;;;;27.79;30.69;101684.50;5090486;27;46032;-91
2023/03/02 08:48:25;;;;;;;;;8.67;8.67;;;;;27.79;30.63;101687.22;5092542;27;46087;-83
2023/03/02 08:50:57;;;;;;;;;8.00;8.00;;;;;27.81;30.74;101682.44;5093803;27;45930;-79
2023/03/02 08:53:24;;;;;;;;;11.00;11.00;;;;;27.83;30.21;101686.69;5095645;27;45497;-78
2023/03/02 08:55:49;;;;;;;;;7.67;6.67;;;;;27.86;30.49;101678.16;5094132;27;45571;-79
2023/03/02 08:58:15;;;;;;;;;7.33;7.33;;;;;27.90;30.13;101678.66;5103620;27;47012;-80
2023/03/02 09:00:40;;;;;;;;;11.00;8.67;;;;;27.90;30.11;101675.91;5099110;27;45516;-78
2023/03/02 09:03:05;;;;;;;;;8.67;7.33;;;;;27.87;30.31;101665.34;5095134;27;45457;-78
2023/03/02 09:05:31;;;;;;;;;6.00;6.00;;;;;27.92;30.58;101668.44;5092413;27;45549;-74
2023/03/02 09:07:56;;;;;;;;;8.67;8.67;;;;;27.92;29.92;101657.50;5101308;27;53600;-76
2023/03/02 09:10:21;;;;;;;;;10.33;9.00;;;;;27.91;30.39;101663.13;5094260;27;49881;-80
2023/03/02 09:12:47;;;;;;;;;9.00;8.00;;;;;27.88;30.08;101667.06;5095912;27;45437;-79
2023/03/02 09:15:12;;;;;;;;;8.00;8.00;;;;;27.89;30.17;101674.22;5084225;27;45382;-78
2023/03/02 09:17:37;;;;;;;;;9.00;8.00;;;;;27.93;29.65;101672.00;5093857;27;45474;-78
2023/03/02 09:20:03;;;;;;;;;10.33;8.00;;;;;28.01;29.88;101669.22;5093443;27;45547;-79
2023/03/02 09:22:30;;;;;;;;;9.67;9.33;;;;;28.06;29.79;101665.97;5093711;27;45468;-80
2023/03/02 09:24:55;;;;;;;;;9.33;9.00;;;;;28.13;29.91;101670.53;5094361;27;45401;-78
2023/03/02 09:27:20;;;;;;;;;7.67;7.00;;;;;28.21;29.57;101669.66;5094109;27;45480;-80
2023/03/02 09:29:46;;;;;;;;;9.33;8.67;;;;;28.30;30.09;101665.03;5094633;27;45547;-79
2023/03/02 09:32:12;;;;;;;;;9.33;8.00;;;;;28.40;29.99;101667.53;5095078;27;45416;-78
2023/03/02 09:34:38;;;;;;;;;9.33;8.67;;;;;28.44;29.38;101657.94;5095425;27;45518;-76
2023/03/02 09:37:03;;;;;;;;;9.00;8.00;;;;;28.52;29.73;101666.09;5094157;27;46615;-78
2023/03/02 09:39:28;;;;;;;;;7.33;7.33;;;;;28.58;29.92;101671.88;5093398;27;45450;-77
2023/03/02 09:42:12;;;;;;;;;4.67;4.67;;;;;28.63;29.50;101673.03;5092526;27;45702;-75
2023/03/02 09:45:00;;;;;;;;;8.67;8.67;;;;;28.64;29.26;101669.25;5091507;27;45577;-78
2023/03/02 09:47:41;;;;;;;;;13.00;11.67;;;;;28.57;29.14;101672.91;5098766;27;46283;-80
2023/03/02 09:50:26;;;;;;;;;11.00;10.00;;;;;28.47;28.69;101663.06;5094468;27;45454;-79
2023/03/02 09:53:09;;;;;;;;;8.33;8.33;;;;;28.38;29.05;101677.78;5094462;27;45481;-79
2023/03/02 09:55:36;;;;;;;;;8.00;8.00;;;;;28.27;29.10;101668.13;5093183;27;45628;-80
2023/03/02 09:58:11;;;;;;;;;9.67;9.00;;;;;28.19;28.60;101665.41;5093117;27;46415;-79
2023/03/02 10:00:41;;;;;;;;;10.33;10.33;;;;;28.13;29.05;101675.97;5091075;27;45543;-78
2023/03/02 10:03:26;;;;;;;;;6.33;6.33;;;;;28.07;28.46;101670.41;5094424;27;45374;-76
2023/03/02 10:05:54;;;;;;;;;8.67;7.33;;;;;28.04;28.54;101670.75;5093821;27;45516;-80
2023/03/02 10:08:25;;;;;;;;;10.33;9.00;;;;;28.01;28.39;101661.91;5093873;27;46162;-80
2023/03/02 10:11:15;;;;;;;;;9.00;7.67;;;;;27.95;29.01;101672.69;5092774;27;45520;-80
2023/03/02 10:13:48;;;;;;;;;9.00;7.33;;;;;27.92;28.22;101673.03;5090592;27;45547;-81
2023/03/02 10:16:29;;;;;;;;;7.00;7.00;;;;;27.88;28.28;101673.34;5086447;27;45562;-79
2023/03/02 10:19:40;;;;;;;;;7.00;7.00;;;;;27.84;28.52;101666.56;5093656;27;46239;-80
2023/03/02 10:22:37;;;;;;;;;8.33;8.33;;;;;27.81;28.87;101677.84;5051237;28;45456;-80
2023/03/02 10:25:22;;;;;;;;;7.00;7.00;;;;;27.77;28.38;101664.69;5053750;28;45556;-79
2023/03/02 10:27:52;;;;;;;;;7.33;7.33;;;;;27.77;28.36;101664.69;5042047;28;45669;-79
2023/03/02 10:30:31;;;;;;;;;8.00;6.33;;;;;27.75;28.28;101665.75;5054976;28;46251;-80
2023/03/02 10:33:02;;;;;;;;;9.67;8.00;;;;;27.75;28.28;101670.34;5050483;28;45900;-78
2023/03/02 10:35:29;;;;;;;;;11.67;9.00;;;;;27.70;28.15;101659.09;5047179;28;45529;-81
2023/03/02 10:38:06;;;;;;;;;8.67;8.67;;;;;27.72;28.16;101662.50;5050425;28;45670;-79
2023/03/02 10:40:41;;;;;;;;;9.67;9.67;;;;;27.71;28.50;101660.81;5057211;28;45579;-79
2023/03/02 10:43:16;;;;;;;;;10.00;9.00;;;;;27.68;28.47;101662.03;5048956;28;45921;-80
2023/03/02 10:45:42;;;;;;;;;11.67;9.67;;;;;27.69;27.98;101654.66;5063717;28;45444;-84
2023/03/02 10:48:10;;;;;;;;;9.00;9.00;;;;;27.66;27.83;101653.16;5050310;28;45602;-80
2023/03/02 10:50:37;;;;;;;;;10.00;9.00;;;;;27.65;28.51;101654.19;5056793;28;45448;-81
2023/03/02 10:53:05;;;;;;;;;8.33;8.33;;;;;27.64;28.39;101651.63;5060968;28;45602;-79
2023/03/02 10:55:32;;;;;;;;;9.00;8.00;;;;;27.63;28.41;101656.25;5057817;27;45517;-77
2023/03/02 10:58:19;;;;;;;;;9.67;9.67;;;;;27.62;28.23;101654.53;5091139;27;45816;-78
2023/03/02 11:01:14;;;;;;;;;8.33;8.33;;;;;27.62;28.19;101651.78;5086266;27;45860;-76
2023/03/02 11:03:39;;;;;;;;;10.33;8.67;;;;;27.62;28.23;101651.78;5081998;27;45363;-77
2023/03/02 11:06:19;;;;;;;;;10.00;8.67;;;;;27.61;28.63;101645.50;5082849;27;45498;-76
2023/03/02 11:08:44;;;;;;;;;5.67;5.67;;;;;27.63;27.91;101637.16;5086568;27;45588;-75
2023/03/02 11:11:21;;;;;;;;;10.00;8.33;;;;;27.64;28.02;101638.00;5095691;27;45382;-75
2023/03/02 11:13:46;;;;;;;;;10.33;10.33;;;;;27.62;27.68;101633.56;5087894;27;45502;-75
2023/03/02 11:16:17;;;;;;;;;13.00;10.00;;;;;27.62;27.95;101641.75;5090525;27;45465;-75
2023/03/02 11:19:00;;;;;;;;;7.33;7.00;;;;;27.62;27.81;101640.88;5090136;27;45719;-75
2023/03/02 11:21:40;;;;;;;;;10.00;9.00;;;;;27.63;27.91;101639.88;5092969;27;46166;-75
2023/03/02 11:24:14;;;;;;;;;8.67;7.67;;;;;27.64;27.90;101641.56;5084105;27;45436;-75
2023/03/02 11:27:01;;;;;;;;;13.00;11.33;;;;;27.65;27.88;101639.69;5095227;27;45507;-75
2023/03/02 11:29:40;;;;;;;;;9.67;9.00;;;;;27.67;27.94;101640.38;5095882;27;45470;-75
2023/03/02 11:32:21;;;;;;;;;9.00;9.00;;;;;27.67;27.73;101635.75;5094770;27;46277;-75
2023/03/02 11:35:18;;;;;;;;;8.00;8.00;;;;;27.68;28.14;101633.88;5096271;27;45478;-76
2023/03/02 11:37:54;;;;;;;;;10.67;10.00;;;;;27.69;27.62;101632.84;5094637;27;45957;-75
2023/03/02 11:40:31;;;;;;;;;10.00;8.67;;;;;27.71;27.78;101630.81;5093551;27;45454;-77
2023/03/02 11:42:59;;;;;;;;;12.00;12.00;;;;;27.73;27.95;101623.31;5090839;27;46523;-76
2023/03/02 11:45:31;;;;;;;;;11.67;10.33;;;;;27.73;27.60;101620.56;5087191;27;45471;-76
2023/03/02 11:48:03;;;;;;;;;10.00;10.00;;;;;27.75;28.00;101627.56;5087533;27;45403;-76
2023/03/02 11:50:33;;;;;;;;;10.67;8.67;;;;;27.78;27.67;101620.91;5095276;27;45546;-76
2023/03/02 11:53:02;;;;;;;;;9.33;9.33;;;;;27.78;27.55;101618.16;5090955;27;47455;-75
2023/03/02 11:55:33;;;;;;;;;9.00;7.33;;;;;27.81;27.48;101623.28;5093674;27;45567;-76
2023/03/02 11:58:01;;;;;;;;;9.00;9.00;;;;;27.82;28.07;101615.94;5090084;27;45757;-76
2023/03/02 12:00:38;;;;;;;;;10.67;8.67;;;;;27.83;27.54;101620.38;5089353;27;45621;-76
2023/03/02 12:03:05;;;;;;;;;9.67;9.67;;;;;27.84;28.01;101622.06;5091646;27;45422;-77
2023/03/02 12:05:34;;;;;;;;;9.00;9.00;;;;;27.85;28.06;101610.13;5092733;27;45924;-76
2023/03/02 12:08:07;;;;;;;;;10.00;10.00;;;;;27.85;27.40;101611.00;5094320;27;45508;-76
2023/03/02 12:10:38;;;;;;;;;12.33;9.33;;;;;27.86;28.07;101609.97;5096930;27;45545;-76
2023/03/02 12:13:26;;;;;;;;;11.00;8.67;;;;;27.86;27.78;101606.38;5093950;27;45439;-77
2023/03/02 12:15:51;;;;;;;;;8.00;8.00;;;;;27.85;27.47;101607.41;5109530;27;45475;-76
2023/03/02 12:18:21;;;;;;;;;7.00;7.00;;;;;27.86;27.52;101609.97;5092396;27;45781;-76
2023/03/02 12:21:04;;;;;;;;;10.67;9.33;;;;;27.87;27.40;101608.06;5089608;27;45580;-74
2023/03/02 12:23:39;;;;;;;;;7.00;7.00;;;;;27.86;27.86;101606.38;5092226;27;45924;-76
2023/03/02 12:26:31;;;;;;;;;8.00;8.00;;;;;27.87;27.93;101598.00;5089729;27;45573;-76
2023/03/02 12:29:08;;;;;;;;;8.67;8.00;;;;;27.88;27.35;101594.25;5088302;27;45839;-76
2023/03/02 12:31:53;;;;;;;;;9.00;8.00;;;;;27.88;27.38;101590.69;5092306;27;45398;-76
2023/03/02 12:34:40;;;;;;;;;9.67;9.67;;;;;27.88;27.33;101590.69;5094458;27;46280;-76
2023/03/02 12:37:15;;;;;;;;;9.33;8.67;;;;;27.88;27.83;101585.25;5086706;27;45434;-76
2023/03/02 12:39:58;;;;;;;;;9.67;9.67;;;;;27.89;27.82;101592.38;5085992;27;45563;-76
2023/03/02 12:42:41;;;;;;;;;9.00;9.00;;;;;27.89;27.07;101581.47;5091789;27;45583;-76
2023/03/02 12:45:22;;;;;;;;;8.67;8.00;;;;;27.85;27.18;101581.00;5091499;27;46374;-76
2023/03/02 12:47:55;;;;;;;;;7.67;7.33;;;;;27.86;27.71;101584.53;5092356;27;45462;-76
2023/03/02 12:50:24;;;;;;;;;11.33;10.00;;;;;27.85;27.91;101582.84;5095403;27;45401;-76
2023/03/02 12:52:58;;;;;;;;;10.33;9.00;;;;;27.83;27.30;101580.28;5088754;27;45647;-76
2023/03/02 12:55:23;;;;;;;;;9.67;9.00;;;;;27.84;27.14;101573.81;5079471;27;46233;-76
2023/03/02 12:58:00;;;;;;;;;10.33;8.33;;;;;27.86;27.02;101579.09;5089595;27;45491;-75
2023/03/02 13:00:29;;;;;;;;;7.00;7.00;;;;;27.86;27.79;101571.78;5085620;27;45690;-76
2023/03/02 13:02:56;;;;;;;;;10.67;10.67;;;;;27.88;27.18;101575.16;5092868;27;45533;-75
2023/03/02 13:05:26;;;;;;;;;8.67;8.00;;;;;27.92;27.04;101566.63;5094411;27;46875;-75
2023/03/02 13:08:04;;;;;;;;;9.67;9.67;;;;;27.94;27.13;101570.88;5093853;27;45438;-76
2023/03/02 13:10:40;;;;;;;;;9.67;7.67;;;;;27.96;27.33;101563.34;5088839;27;45512;-78
2023/03/02 13:13:26;;;;;;;;;11.33;11.00;;;;;27.99;27.13;101563.00;5085863;27;45524;-75
2023/03/02 13:15:54;;;;;;;;;36.00;30.75;;;;;27.96;26.86;101549.72;5090189;27;47154;-76
2023/03/02 13:18:22;;;;;;;;;40.00;34.75;;;;;27.92;26.86;101561.16;5093991;27;45427;-76
2023/03/02 13:20:48;;;;;;;;;44.50;37.75;;;;;27.74;26.59;101554.94;5094028;27;46468;-77
2023/03/02 13:23:16;;;;;;;;;40.00;33.25;;;;;27.53;26.30;101558.25;5082375;27;45517;-78
2023/03/02 13:25:51;;;;;;;;;34.50;32.50;;;;;27.40;26.64;101558.81;5092240;27;47245;-79
2023/03/02 13:28:30;;;;;;;;;35.25;32.50;;;;;27.34;26.61;101554.06;5090870;27;45656;-75
2023/03/02 13:31:02;;;;;;;;;33.75;30.75;;;;;27.31;26.37;101548.94;5092343;27;45556;-76
2023/03/02 13:33:29;;;;;;;;;36.00;31.25;;;;;27.33;26.81;101541.44;5091384;27;45592;-79
2023/03/02 13:35:55;;;;;;;;;27.75;25.75;;;;;27.36;26.50;101552.84;5084211;27;45548;-78
2023/03/02 13:38:25;;;;;;;;;31.50;30.50;;;;;27.39;26.46;101550.78;5081419;27;45540;-75
2023/03/02 13:40:54;;;;;;;;;35.50;30.75;;;;;27.40;26.25;101550.63;5088283;27;46542;-74
2023/03/02 13:43:34;;;;;;;;;33.75;32.00;;;;;27.44;26.36;101548.38;5090630;27;45802;-78
2023/03/02 13:46:16;;;;;;;;;33.25;32.00;;;;;27.46;25.85;101544.47;5084209;27;46165;-79
2023/03/02 13:48:56;;;;;;;;;32.25;31.25;;;;;27.48;25.73;101553.34;5085678;27;45512;-76
2023/03/02 13:51:24;;;;;;;;;30.50;28.50;;;;;27.50;26.34;101550.41;5089998;27;45558;-80
2023/03/02 13:54:19;;;;;;;;;33.25;32.25;;;;;27.52;25.63;101544.78;5081891;27;45486;-79
2023/03/02 13:56:45;;;;;;;;;37.00;32.75;;;;;27.51;25.61;101551.25;5088481;27;45465;-78
2023/03/02 13:59:16;;;;;;;;;34.25;31.00;;;;;27.49;26.28;101552.31;5090506;27;45686;-77
2023/03/02 14:01:45;;;;;;;;;34.25;32.75;;;;;27.48;26.07;101555.19;5089261;27;45505;-79
2023/03/02 14:04:12;;;;;;;;;31.75;27.75;;;;;27.47;25.33;101557.06;5091167;27;45528;-82
2023/03/02 14:06:40;;;;;;;;;30.25;29.25;;;;;27.48;26.10;101552.47;5087194;27;45988;-77
2023/03/02 14:09:05;;;;;;;;;28.00;27.75;;;;;27.53;26.14;101549.19;5092713;27;45405;-76
2023/03/02 14:11:35;;;;;;;;;27.75;26.00;;;;;27.59;25.87;101557.53;5091183;27;45423;-74
2023/03/02 14:14:03;;;;;;;;;27.25;23.50;;;;;27.69;26.10;101553.78;5086868;27;46280;-74
2023/03/02 14:16:29;;;;;;;;;21.50;21.00;;;;;27.80;25.59;101561.56;5084340;27;45586;-73
2023/03/02 14:18:57;;;;;;;;;22.00;19.50;;;;;27.89;25.41;101551.47;5082382;27;45422;-75
2023/03/02 14:21:24;;;;;;;;;24.00;23.00;;;;;27.98;25.64;101550.41;5088494;27;45384;-75
2023/03/02 14:23:51;;;;;;;;;24.00;22.25;;;;;28.06;26.16;101545.91;5077663;27;45573;-75
2023/03/02 14:26:46;;;;;;;;;26.25;24.75;;;;;28.12;25.48;101548.75;5086081;27;45552;-75
2023/03/02 14:29:21;;;;;;;;;21.67;20.33;;;;;28.18;25.52;101544.47;5081304;27;45508;-73
2023/03/02 14:31:46;;;;;;;;;20.00;19.33;;;;;28.21;25.58;101538.66;5091332;27;45747;-73
2023/03/02 14:34:13;;;;;;;;;21.67;18.67;;;;;28.23;26.02;101542.03;5086801;27;45480;-74
2023/03/02 14:36:40;;;;;;;;;16.00;16.00;;;;;28.23;25.87;101543.91;5081437;27;46162;-76
2023/03/02 14:39:19;;;;;;;;;19.33;19.33;;;;;28.24;25.97;101546.50;5082587;27;45379;-76
2023/03/02 14:41:44;;;;;;;;;20.33;19.00;;;;;28.23;25.50;101539.31;5091748;27;45394;-74
2023/03/02 14:44:10;;;;;;;;;18.33;17.67;;;;;28.26;25.64;101554.50;5096158;27;45502;-75
2023/03/02 14:46:35;;;;;;;;;18.33;18.33;;;;;28.26;26.31;101547.19;5084746;27;45535;-75
2023/03/02 14:49:00;;;;;;;;;18.33;18.33;;;;;28.28;25.97;101546.97;5090096;27;45405;-74
2023/03/02 14:51:30;;;;;;;;;24.50;23.50;;;;;28.29;25.64;101540.50;5090456;27;45372;-74
2023/03/02 14:54:00;;;;;;;;;25.25;25.00;;;;;28.26;26.21;101544.47;5085061;27;45823;-75
2023/03/02 14:56:25;;;;;;;;;31.00;30.25;;;;;28.15;25.34;101531.19;5087591;27;47203;-75
2023/03/02 14:58:52;;;;;;;;;28.25;27.75;;;;;28.04;25.30;101537.91;5086146;27;45464;-75
2023/03/02 15:01:18;;;;;;;;;27.75;27.75;;;;;27.91;25.64;101541.22;5088056;27;45689;-75
2023/03/02 15:03:44;;;;;;;;;27.50;24.75;;;;;27.77;25.69;101536.50;5095364;27;45385;-80
2023/03/02 15:06:25;;;;;;;;;25.50;24.25;;;;;27.71;25.30;101538.94;5092183;27;45606;-77
2023/03/02 15:08:50;;;;;;;;;21.50;18.25;;;;;27.71;25.46;101538.09;5108897;27;45760;-74
2023/03/02 15:11:15;;;;;;;;;22.00;21.33;;;;;27.73;26.02;101530.56;5087668;27;45485;-74
2023/03/02 15:13:41;;;;;;;;;22.33;18.67;;;;;27.74;25.87;101524.94;5078707;27;45599;-73
2023/03/02 15:16:09;;;;;;;;;19.00;19.00;;;;;27.75;25.65;101529.38;5084422;27;45966;-73
2023/03/02 15:18:34;;;;;;;;;22.67;18.00;;;;;27.75;25.28;101528.53;5108314;27;45534;-74
2023/03/02 15:21:00;;;;;;;;;19.67;18.00;;;;;27.73;25.83;101525.13;5095804;27;45898;-78
2023/03/02 15:23:25;;;;;;;;;16.33;14.67;;;;;27.74;25.93;101529.53;5102447;27;45529;-82
2023/03/02 15:25:50;;;;;;;;;16.67;15.33;;;;;27.75;25.34;101515.72;5076946;27;46198;-82
2023/03/02 15:28:16;;;;;;;;;19.33;17.33;;;;;27.77;25.76;101525.59;5088534;27;45494;-81
2023/03/02 15:30:41;;;;;;;;;17.67;15.00;;;;;27.81;25.34;101521.50;5079680;27;45461;-82
2023/03/02 15:33:06;;;;;;;;;20.67;17.00;;;;;27.82;25.42;101520.47;5085056;27;45343;-81
2023/03/02 15:35:32;;;;;;;;;19.00;15.67;;;;;27.85;25.57;101525.56;5086801;27;47667;-81
2023/03/02 15:38:01;;;;;;;;;16.00;14.00;;;;;27.88;25.30;101526.06;5077385;27;45262;-83
2023/03/02 15:40:26;;;;;;;;;16.33;15.33;;;;;27.90;25.43;101520.44;5081400;27;45470;-77
2023/03/02 15:42:52;;;;;;;;;16.00;14.00;;;;;27.91;25.77;101524.84;5084440;27;45591;-76
2023/03/02 15:45:17;;;;;;;;;16.67;14.67;;;;;27.90;25.81;101531.34;5081342;27;46250;-80
2023/03/02 15:47:42;;;;;;;;;17.67;15.67;;;;;27.87;25.63;101538.00;5078789;27;45339;-78
2023/03/02 15:50:09;;;;;;;;;11.67;11.67;;;;;27.87;25.18;101527.09;5093412;27;45392;-79
2023/03/02 15:52:34;;;;;;;;;13.33;13.33;;;;;27.90;25.87;101533.22;5082430;27;45331;-77
2023/03/02 15:55:00;;;;;;;;;12.67;12.00;;;;;27.91;26.08;101538.47;5093963;27;55236;-80
2023/03/02 15:57:25;;;;;;;;;16.00;14.67;;;;;27.92;26.28;101534.75;5090542;27;45827;-80
2023/03/02 15:59:50;;;;;;;;;15.67;15.00;;;;;27.95;25.50;101534.38;5099426;27;45369;-80
2023/03/02 16:02:16;;;;;;;;;12.00;12.00;;;;;27.99;25.70;101545.78;5094354;27;45627;-76
2023/03/02 16:04:41;;;;;;;;;14.33;13.67;;;;;28.00;25.47;101537.41;5085411;27;46118;-76
2023/03/02 16:07:07;;;;;;;;;14.00;13.00;;;;;28.02;25.88;101537.22;5087918;27;45434;-76
2023/03/02 16:09:32;;;;;;;;;14.00;12.00;;;;;28.04;25.58;101545.25;5090314;27;45429;-75
2023/03/02 16:11:57;;;;;;;;;14.00;12.00;;;;;28.05;25.97;101542.34;5090637;27;45445;-77
2023/03/02 16:14:23;;;;;;;;;11.67;11.33;;;;;28.06;25.77;101552.22;5086931;27;45460;-77
2023/03/02 16:16:49;;;;;;;;;13.67;12.00;;;;;28.08;26.17;101557.50;5106014;27;45893;-77
2023/03/02 16:19:17;;;;;;;;;15.00;13.33;;;;;28.10;26.18;101561.75;5090701;27;45485;-78
2023/03/02 16:21:42;;;;;;;;;12.33;12.33;;;;;28.11;26.18;101554.41;5090788;27;46583;-79
2023/03/02 16:24:07;;;;;;;;;9.33;9.33;;;;;28.12;25.97;101556.94;5079915;27;45851;-80
2023/03/02 16:26:35;;;;;;;;;13.00;13.00;;;;;28.12;25.61;101556.94;5093376;27;45458;-79
2023/03/02 16:29:03;;;;;;;;;12.67;12.67;;;;;28.11;26.16;101568.91;5084602;27;45519;-79
2023/03/02 16:31:31;;;;;;;;;14.00;11.67;;;;;28.11;25.95;101566.16;5094036;27;45504;-77
2023/03/02 16:33:57;;;;;;;;;11.00;11.00;;;;;28.11;25.77;101570.75;5083203;27;47236;-77
2023/03/02 16:36:24;;;;;;;;;14.33;14.33;;;;;28.10;26.55;101559.03;5087698;27;45467;-81
2023/03/02 16:38:49;;;;;;;;;12.67;12.67;;;;;28.09;26.23;101570.97;5087415;27;45305;-81
2023/03/02 16:41:18;;;;;;;;;6.33;6.00;;;;;28.09;26.34;101570.09;5091269;27;45643;-81
2023/03/02 16:43:49;;;;;;;;;11.67;11.67;;;;;28.08;26.31;101571.16;5089848;27;45530;-80
2023/03/02 16:46:14;;;;;;;;;12.00;12.00;;;;;28.08;25.92;101576.59;5085637;27;45575;-78
2023/03/02 16:48:41;;;;;;;;;12.33;12.33;;;;;28.11;26.30;101581.69;5094164;27;45482;-79
2023/03/02 16:51:07;;;;;;;;;12.67;10.67;;;;;28.11;26.56;101585.28;5090167;27;45550;-77
2023/03/02 16:53:33;;;;;;;;;12.00;10.33;;;;;28.13;26.04;101585.94;5087303;27;46065;-79
2023/03/02 16:55:58;;;;;;;;;13.67;12.00;;;;;28.15;26.71;101575.69;5091348;27;45511;-79
2023/03/02 16:58:23;;;;;;;;;12.67;12.00;;;;;28.14;26.13;101582.19;5092196;27;45589;-77
2023/03/02 17:00:49;;;;;;;;;11.33;11.33;;;;;28.15;26.02;101583.88;5078257;27;45568;-77
2023/03/02 17:03:15;;;;;;;;;11.67;9.67;;;;;28.17;26.02;101582.84;5085740;27;45718;-78
2023/03/02 17:05:42;;;;;;;;;13.00;12.33;;;;;28.14;26.23;101587.66;5082702;27;45749;-76
2023/03/02 17:08:09;;;;;;;;;13.67;12.00;;;;;28.12;26.10;101600.63;5088951;27;45462;-77
2023/03/02 17:10:34;;;;;;;;;12.67;12.33;;;;;28.05;26.47;101598.78;5085923;27;45437;-76
2023/03/02 17:13:00;;;;;;;;;11.33;9.33;;;;;27.92;26.50;101594.78;5087255;27;45457;-76
2023/03/02 17:15:25;;;;;;;;;12.67;11.00;;;;;27.79;25.87;101603.50;5093582;27;45287;-76
2023/03/02 17:17:50;;;;;;;;;11.00;10.33;;;;;27.65;26.33;101607.81;5084161;27;45304;-76
2023/03/02 17:20:16;;;;;;;;;10.67;10.67;;;;;27.53;25.81;101607.31;5081402;27;45346;-76
2023/03/02 17:22:42;;;;;;;;;15.33;13.67;;;;;27.42;26.42;101608.53;5088128;27;47102;-76
2023/03/02 17:25:09;;;;;;;;;13.33;11.67;;;;;27.32;25.99;101607.88;5090888;27;45451;-76
2023/03/02 17:27:35;;;;;;;;;11.33;11.33;;;;;27.24;26.12;101614.19;5081042;27;45492;-75
2023/03/02 17:30:00;;;;;;;;;13.50;13.00;;;;;27.16;26.07;101617.78;5091289;27;45481;-76
2023/03/02 17:32:25;;;;;;;;;15.00;12.00;;;;;27.13;25.71;101617.28;5090110;27;46268;-75
2023/03/02 17:34:51;;;;;;;;;15.33;12.00;;;;;27.09;25.92;101617.63;5089233;27;45656;-75
2023/03/02 17:37:16;;;;;;;;;13.00;11.33;;;;;27.06;26.24;101628.84;5087768;27;45709;-74
2023/03/02 17:39:42;;;;;;;;;12.67;11.00;;;;;27.02;26.20;101629.38;5081708;27;45352;-78
2023/03/02 17:42:07;;;;;;;;;13.00;12.00;;;;;26.99;26.01;101635.16;5079848;27;45793;-78
2023/03/02 17:44:33;;;;;;;;;14.00;14.00;;;;;26.97;25.97;101629.88;5092098;27;45460;-77
2023/03/02 17:47:02;;;;;;;;;13.33;13.33;;;;;26.95;26.31;101632.78;5094434;27;45406;-76
2023/03/02 17:49:28;;;;;;;;;13.00;11.33;;;;;27.00;26.48;101643.16;5083108;27;45561;-77